Aviation Digital Data Service (ADDS)

Output produced by METARs form (0958 UTC 19 January 2019)
found at http://www.aviationweather.gov/metar/data/
 
LBBG 190930Z 08008KT CAVOK 08/01 Q1021 NOSIG
TAF LBBG 190500Z 1906/2006 27010KT CAVOK 
     BECMG 1907/1909 02014KT BKN045 
     BECMG 1913/1915 08014KT BKN015 OVC030 
     TEMPO 1917/2004 5000 DZ SCT005 BKN010 OVC020
       
LBGO 190930Z AUTO 00000KT 9999 OVC080 06/01 Q1021 NOSIG
TAF LBGO 190500Z 1906/2006 08010KT 9999 SCT030 OVC060 
     PROB30 
     TEMPO 1909/1913 RA BKN030 OVC050 
     BECMG 1918/1920 VRB04KT 
     TEMPO 2002/2006 2000 BR BKN015
       
LBPD 190930Z AUTO 31003KT 250V350 9999 NCD 05/M01 Q1020 TEMPO 5000 BR
TAF LBPD 190500Z 1906/2006 VRB04KT 9999 SCT040 
     BECMG 1911/1913 09010KT SCT030 BKN050 
     PROB40 
     TEMPO 1916/1923 5000 RA BKN020 OVC040 
     TEMPO 2002/2006 2000 DZ BR BKN010 OVC020
       
LBSF 190930Z 00000KT 3300 BR SCT052 01/M01 Q1019 TEMPO 2000 BR
TAF LBSF 190512Z 1906/2006 VRB04KT 8000 SCT040 SCT055 
     TEMPO 1906/1907 3000 BR 
     PROB30 
     TEMPO 1909/1912 5000 RASN SCT015 OVC025 
     BECMG 1912/1914 10010KT
       
LBWN 190930Z 08007KT 020V100 9999 FEW019 05/00 Q1022 NOSIG
TAF LBWN 190500Z 1906/2006 32010KT CAVOK 
     BECMG 1907/1909 02014KT SCT040 
     BECMG 1914/1916 08012KT BKN015 OVC030 
     TEMPO 1917/2005 5000 DZ SCT007 BKN012 OVC025